createdAt,value
2023-10-23T04:38:49.813Z,10.47
2023-10-23T04:43:49.839Z,10.27
2023-10-23T04:48:49.728Z,10.20
2023-10-23T04:53:49.696Z,10.14
2023-10-23T04:58:49.634Z,10.12
2023-10-23T05:03:52.576Z,10.01
2023-10-23T05:08:49.504Z,10.02
2023-10-23T05:26:07.808Z,9.87
2023-10-23T05:31:07.676Z,9.90
2023-10-23T05:36:07.665Z,9.86
2023-10-23T05:41:07.597Z,9.90
2023-10-23T06:02:17.454Z,9.94
2023-10-23T06:07:18.556Z,9.89
2023-10-23T06:12:17.627Z,9.90
2023-10-23T06:17:17.404Z,9.94
2023-10-23T06:22:17.299Z,9.87
2023-10-23T06:27:17.270Z,9.83
2023-10-23T06:32:17.233Z,9.76
2023-10-23T06:37:18.297Z,9.72
2023-10-23T06:42:17.114Z,9.86
2023-10-23T06:47:17.001Z,9.93
2023-10-23T06:52:16.965Z,9.99
2023-10-23T06:57:16.982Z,9.99
2023-10-23T07:02:16.873Z,9.96
2023-10-23T07:07:28.428Z,9.99
2023-10-23T07:12:17.841Z,10.11
2023-10-23T07:17:16.710Z,10.20
2023-10-23T07:22:16.785Z,10.29
2023-10-23T07:27:16.761Z,10.32
2023-10-23T07:32:16.558Z,10.38
2023-10-23T07:37:16.514Z,10.51
2023-10-23T07:42:16.441Z,10.63
2023-10-23T07:47:16.420Z,10.74
2023-10-23T07:52:16.495Z,10.84
2023-10-23T07:57:16.291Z,10.91
2023-10-23T08:02:16.272Z,11.09
2023-10-23T08:07:16.165Z,11.37
2023-10-23T08:12:16.074Z,11.67
2023-10-23T08:17:24.448Z,11.90
2023-10-23T08:22:17.006Z,12.23
2023-10-23T08:27:15.924Z,12.50
2023-10-23T08:32:15.953Z,12.72
2023-10-23T08:37:16.003Z,13.03
2023-10-23T08:42:15.896Z,13.25
2023-10-23T08:47:15.876Z,13.38
2023-10-23T08:52:15.841Z,13.51
2023-10-23T08:57:15.748Z,13.81
2023-10-23T09:02:16.623Z,14.12
2023-10-23T09:07:15.489Z,14.06
2023-10-23T09:12:15.437Z,14.20
2023-10-23T09:17:15.413Z,14.42
2023-10-23T09:22:15.390Z,14.69
2023-10-23T09:27:15.334Z,14.88
2023-10-23T09:32:16.268Z,15.14
2023-10-23T09:37:15.230Z,15.47
2023-10-23T09:42:15.088Z,15.53
2023-10-23T09:47:15.135Z,15.39
2023-10-23T09:52:15.034Z,15.78
2023-10-23T09:57:15.671Z,16.09
2023-10-23T10:02:15.112Z,16.30
2023-10-23T10:07:15.542Z,16.50
2023-10-23T10:12:14.858Z,16.34
2023-10-23T10:17:15.180Z,16.56
2023-10-23T10:22:14.719Z,16.67
2023-10-23T10:27:14.565Z,16.88
2023-10-23T10:32:14.832Z,16.73
2023-10-23T10:37:25.369Z,17.04
2023-10-23T10:42:15.477Z,17.22
2023-10-23T10:47:14.522Z,16.91
2023-10-23T10:52:14.553Z,17.28
2023-10-23T10:57:14.341Z,17.37
2023-10-23T11:02:14.189Z,17.55
2023-10-23T11:07:14.190Z,17.55
2023-10-23T11:12:14.061Z,17.36
2023-10-23T11:17:14.052Z,17.74
2023-10-23T11:22:14.090Z,17.86
2023-10-23T11:27:13.925Z,18.15
2023-10-23T11:32:14.914Z,17.86
2023-10-23T11:37:13.950Z,17.97
2023-10-23T11:42:13.788Z,17.68
2023-10-23T11:47:13.868Z,17.71
2023-10-23T11:52:13.699Z,17.51
2023-10-23T11:57:13.663Z,17.49
2023-10-23T12:02:13.593Z,17.72
2023-10-23T12:07:13.562Z,17.87
2023-10-23T12:12:13.421Z,17.55
2023-10-23T12:17:13.511Z,17.56
2023-10-23T12:22:13.352Z,17.77
2023-10-23T12:27:13.223Z,17.56
2023-10-23T12:33:14.379Z,17.86
2023-10-23T12:37:14.256Z,17.84
2023-10-23T12:42:13.070Z,17.68
2023-10-23T12:47:13.079Z,17.40
2023-10-23T12:52:13.022Z,17.46
2023-10-23T12:57:12.946Z,17.33
2023-10-23T13:02:12.891Z,17.59
2023-10-23T13:07:12.835Z,17.81
2023-10-23T13:12:12.753Z,17.18
2023-10-23T13:17:12.725Z,17.58
2023-10-23T13:22:12.690Z,17.36
2023-10-23T13:27:12.568Z,17.28
2023-10-23T13:32:15.140Z,17.21
2023-10-23T13:37:12.452Z,17.34
2023-10-23T13:42:12.456Z,17.33
2023-10-23T13:47:12.457Z,17.19
2023-10-23T13:52:12.430Z,17.36
2023-10-23T13:57:14.068Z,16.97
2023-10-23T14:02:12.305Z,17.15
2023-10-23T14:07:12.328Z,17.22
2023-10-23T14:12:12.201Z,17.14
2023-10-23T14:17:12.463Z,16.81
2023-10-23T14:22:12.987Z,17.03
2023-10-23T14:27:11.991Z,17.03
2023-10-23T14:32:12.068Z,16.81
2023-10-23T14:37:12.197Z,16.35
2023-10-23T14:42:11.853Z,16.31
2023-10-23T14:47:11.849Z,16.21
2023-10-23T14:52:11.762Z,16.30
2023-10-23T14:57:11.839Z,16.28
2023-10-23T15:02:11.670Z,16.21
2023-10-23T15:07:11.581Z,16.12
2023-10-23T15:12:11.473Z,16.02
2023-10-23T15:17:11.462Z,15.93
2023-10-23T15:22:11.392Z,15.87
2023-10-23T15:27:11.345Z,15.69
2023-10-23T15:32:11.471Z,15.72
2023-10-23T15:37:11.686Z,15.69
2023-10-23T15:42:12.060Z,15.68
2023-10-23T15:47:11.429Z,15.38
2023-10-23T15:52:11.300Z,15.46
2023-10-23T15:57:12.270Z,15.46
2023-10-23T16:02:10.917Z,15.44
2023-10-23T16:07:10.948Z,15.38
2023-10-23T16:12:10.833Z,15.21
2023-10-23T16:17:10.820Z,15.23
2023-10-23T16:22:10.737Z,15.16
2023-10-23T16:27:10.606Z,15.14
2023-10-23T16:32:10.755Z,15.11
2023-10-23T16:37:10.802Z,15.11
2023-10-23T16:42:10.509Z,15.07
2023-10-23T16:47:10.575Z,15.09
2023-10-23T16:52:11.634Z,15.11
2023-10-23T16:57:10.387Z,15.09
2023-10-23T17:02:10.396Z,15.01
2023-10-23T19:06:48.587Z,13.96
2023-10-23T19:11:48.086Z,13.87
2023-10-23T19:16:48.034Z,13.71
2023-10-23T19:21:47.919Z,13.69
2023-10-23T19:26:47.863Z,13.75
2023-10-23T19:31:47.898Z,13.75
2023-10-23T19:36:47.799Z,13.77
2023-10-23T19:41:47.739Z,13.82
2023-10-23T19:46:47.780Z,13.85
2023-10-23T19:51:47.744Z,13.87
2023-10-23T19:56:47.629Z,13.87
2023-10-23T20:01:47.701Z,13.84
2023-10-23T20:06:47.455Z,13.85
2023-10-23T20:11:47.444Z,13.87
2023-10-23T20:16:47.518Z,13.81
2023-10-23T20:21:47.331Z,13.69
2023-10-23T20:26:47.269Z,13.84
2023-10-23T20:31:47.292Z,13.87
2023-10-23T20:36:47.186Z,13.84
2023-10-23T20:41:47.129Z,13.91
2023-10-23T20:46:47.142Z,13.87
2023-10-23T20:51:46.968Z,13.87
2023-10-23T20:56:46.907Z,13.95
2023-10-23T21:01:46.946Z,13.96
2023-10-23T21:06:46.806Z,13.96
2023-10-23T21:11:46.741Z,13.96
2023-10-23T21:16:46.731Z,13.89
2023-10-23T21:21:46.749Z,13.92
2023-10-23T21:26:46.641Z,13.96
2023-10-23T21:31:46.711Z,13.89
2023-10-23T21:36:46.505Z,13.84
2023-10-23T21:41:46.428Z,13.97
2023-10-23T21:46:46.468Z,13.95
2023-10-23T21:51:46.318Z,13.87
2023-10-23T21:57:21.661Z,13.96
2023-10-23T22:01:48.135Z,13.97
2023-10-23T22:06:46.133Z,13.96
2023-10-23T22:11:46.119Z,13.96
2023-10-23T22:16:46.062Z,13.88
2023-10-23T22:21:45.968Z,13.88
2023-10-23T22:26:45.940Z,13.87
2023-10-23T22:31:45.897Z,13.73
2023-10-23T22:36:45.824Z,13.77
2023-10-23T22:41:45.767Z,13.87
2023-10-23T22:46:45.821Z,13.81
2023-10-23T22:51:45.653Z,13.91
2023-10-23T22:56:45.664Z,14.02
2023-10-23T23:01:45.627Z,14.24
2023-10-23T23:06:45.527Z,14.21
2023-10-23T23:11:45.443Z,14.28
2023-10-23T23:16:45.452Z,14.40
2023-10-23T23:21:45.353Z,14.18
2023-10-23T23:26:45.269Z,14.24
2023-10-23T23:31:45.296Z,14.45
2023-10-23T23:36:45.151Z,14.52
2023-10-23T23:41:45.263Z,14.40
2023-10-23T23:46:45.143Z,14.46
2023-10-23T23:51:45.017Z,14.64
2023-10-23T23:56:44.926Z,14.62
